sensor_id;sensor_type;location;lat;lon;timestamp;temperature;humidity
71839;SHT31;59687;37.520;15.068;2022-08-21T00:01:21;25.23;65.97
71839;SHT31;59687;37.520;15.068;2022-08-21T00:03:53;25.21;66.07
71839;SHT31;59687;37.520;15.068;2022-08-21T00:06:22;25.14;66.20
71839;SHT31;59687;37.520;15.068;2022-08-21T00:08:51;25.15;66.19
71839;SHT31;59687;37.520;15.068;2022-08-21T00:11:18;25.11;66.29
71839;SHT31;59687;37.520;15.068;2022-08-21T00:13:45;25.11;66.34
71839;SHT31;59687;37.520;15.068;2022-08-21T00:16:12;25.08;66.33
71839;SHT31;59687;37.520;15.068;2022-08-21T00:18:39;25.08;66.33
71839;SHT31;59687;37.520;15.068;2022-08-21T00:21:07;25.03;66.47
71839;SHT31;59687;37.520;15.068;2022-08-21T00:23:36;25.00;66.58
71839;SHT31;59687;37.520;15.068;2022-08-21T00:26:03;24.96;66.68
71839;SHT31;59687;37.520;15.068;2022-08-21T00:28:30;24.89;66.77
71839;SHT31;59687;37.520;15.068;2022-08-21T00:30:57;24.91;66.72
71839;SHT31;59687;37.520;15.068;2022-08-21T00:33:25;24.90;66.69
71839;SHT31;59687;37.520;15.068;2022-08-21T00:35:52;24.89;66.52
71839;SHT31;59687;37.520;15.068;2022-08-21T00:38:19;24.90;66.25
71839;SHT31;59687;37.520;15.068;2022-08-21T00:40:53;24.89;66.20
71839;SHT31;59687;37.520;15.068;2022-08-21T00:43:24;24.89;66.05
71839;SHT31;59687;37.520;15.068;2022-08-21T00:45:51;24.96;65.42
71839;SHT31;59687;37.520;15.068;2022-08-21T00:48:21;24.93;65.34
71839;SHT31;59687;37.520;15.068;2022-08-21T00:51:03;24.86;65.59
71839;SHT31;59687;37.520;15.068;2022-08-21T00:53:33;24.82;65.74
71839;SHT31;59687;37.520;15.068;2022-08-21T00:56:03;24.77;65.59
71839;SHT31;59687;37.520;15.068;2022-08-21T00:58:32;24.70;65.92
71839;SHT31;59687;37.520;15.068;2022-08-21T01:01:05;24.65;65.98
71839;SHT31;59687;37.520;15.068;2022-08-21T01:03:35;24.62;66.21
71839;SHT31;59687;37.520;15.068;2022-08-21T01:06:03;24.58;66.47
71839;SHT31;59687;37.520;15.068;2022-08-21T01:08:33;24.62;66.35
71839;SHT31;59687;37.520;15.068;2022-08-21T01:11:01;24.61;66.18
71839;SHT31;59687;37.520;15.068;2022-08-21T01:13:32;24.68;65.33
71839;SHT31;59687;37.520;15.068;2022-08-21T01:16:03;24.72;65.11
71839;SHT31;59687;37.520;15.068;2022-08-21T01:18:31;24.66;64.87
71839;SHT31;59687;37.520;15.068;2022-08-21T01:23:37;24.61;65.23
71839;SHT31;59687;37.520;15.068;2022-08-21T01:26:06;24.56;65.55
71839;SHT31;59687;37.520;15.068;2022-08-21T01:28:38;24.51;65.94
71839;SHT31;59687;37.520;15.068;2022-08-21T01:31:08;24.44;65.84
71839;SHT31;59687;37.520;15.068;2022-08-21T01:33:38;24.44;65.85
71839;SHT31;59687;37.520;15.068;2022-08-21T01:36:05;24.38;65.90
71839;SHT31;59687;37.520;15.068;2022-08-21T01:38:33;24.34;66.04
71839;SHT31;59687;37.520;15.068;2022-08-21T01:40:59;24.34;66.38
71839;SHT31;59687;37.520;15.068;2022-08-21T01:43:29;24.28;66.68
71839;SHT31;59687;37.520;15.068;2022-08-21T01:45:57;24.29;67.26
71839;SHT31;59687;37.520;15.068;2022-08-21T01:48:25;24.27;67.85
71839;SHT31;59687;37.520;15.068;2022-08-21T01:50:52;24.28;67.80
71839;SHT31;59687;37.520;15.068;2022-08-21T01:53:19;24.25;68.08
71839;SHT31;59687;37.520;15.068;2022-08-21T01:55:50;24.24;68.33
71839;SHT31;59687;37.520;15.068;2022-08-21T01:58:17;24.25;68.58
71839;SHT31;59687;37.520;15.068;2022-08-21T02:00:44;24.28;68.40
71839;SHT31;59687;37.520;15.068;2022-08-21T02:03:11;24.27;68.64
71839;SHT31;59687;37.520;15.068;2022-08-21T02:05:38;24.25;68.74
71839;SHT31;59687;37.520;15.068;2022-08-21T02:08:06;24.22;68.86
71839;SHT31;59687;37.520;15.068;2022-08-21T02:10:33;24.17;68.67
71839;SHT31;59687;37.520;15.068;2022-08-21T02:13:00;24.17;68.55
71839;SHT31;59687;37.520;15.068;2022-08-21T02:15:29;24.14;68.76
71839;SHT31;59687;37.520;15.068;2022-08-21T02:17:58;24.13;69.00
71839;SHT31;59687;37.520;15.068;2022-08-21T02:20:39;24.10;69.12
71839;SHT31;59687;37.520;15.068;2022-08-21T02:23:08;24.07;69.33
71839;SHT31;59687;37.520;15.068;2022-08-21T02:25:36;24.07;69.45
71839;SHT31;59687;37.520;15.068;2022-08-21T02:28:06;24.06;69.33
71839;SHT31;59687;37.520;15.068;2022-08-21T02:30:38;24.09;69.43
71839;SHT31;59687;37.520;15.068;2022-08-21T02:33:08;24.06;69.48
71839;SHT31;59687;37.520;15.068;2022-08-21T02:35:39;24.09;69.50
71839;SHT31;59687;37.520;15.068;2022-08-21T02:38:11;24.10;69.43
71839;SHT31;59687;37.520;15.068;2022-08-21T02:40:42;24.10;69.49
71839;SHT31;59687;37.520;15.068;2022-08-21T02:43:11;24.10;69.51
71839;SHT31;59687;37.520;15.068;2022-08-21T02:45:42;24.11;69.40
71839;SHT31;59687;37.520;15.068;2022-08-21T02:48:14;24.10;69.45
71839;SHT31;59687;37.520;15.068;2022-08-21T02:50:52;24.09;69.63
71839;SHT31;59687;37.520;15.068;2022-08-21T02:53:20;24.11;70.08
71839;SHT31;59687;37.520;15.068;2022-08-21T02:55:49;24.09;70.01
71839;SHT31;59687;37.520;15.068;2022-08-21T02:58:22;24.13;70.25
71839;SHT31;59687;37.520;15.068;2022-08-21T03:00:49;24.06;70.57
71839;SHT31;59687;37.520;15.068;2022-08-21T03:03:16;24.07;70.60
71839;SHT31;59687;37.520;15.068;2022-08-21T03:05:44;24.03;70.69
71839;SHT31;59687;37.520;15.068;2022-08-21T03:08:14;24.00;70.92
71839;SHT31;59687;37.520;15.068;2022-08-21T03:10:45;24.06;71.04
71839;SHT31;59687;37.520;15.068;2022-08-21T03:13:17;24.13;69.28
71839;SHT31;59687;37.520;15.068;2022-08-21T03:15:49;24.18;69.08
71839;SHT31;59687;37.520;15.068;2022-08-21T03:18:17;24.18;69.08
71839;SHT31;59687;37.520;15.068;2022-08-21T03:20:44;24.07;69.28
71839;SHT31;59687;37.520;15.068;2022-08-21T03:23:15;24.00;69.51
71839;SHT31;59687;37.520;15.068;2022-08-21T03:25:43;23.94;69.56
71839;SHT31;59687;37.520;15.068;2022-08-21T03:28:15;23.89;69.66
71839;SHT31;59687;37.520;15.068;2022-08-21T03:30:49;23.83;69.70
71839;SHT31;59687;37.520;15.068;2022-08-21T03:33:17;23.75;69.99
71839;SHT31;59687;37.520;15.068;2022-08-21T03:35:46;23.69;70.31
71839;SHT31;59687;37.520;15.068;2022-08-21T03:38:18;23.65;70.35
71839;SHT31;59687;37.520;15.068;2022-08-21T03:40:48;23.61;70.37
71839;SHT31;59687;37.520;15.068;2022-08-21T03:43:15;23.58;70.49
71839;SHT31;59687;37.520;15.068;2022-08-21T03:45:43;23.54;70.60
71839;SHT31;59687;37.520;15.068;2022-08-21T03:48:13;23.52;70.73
71839;SHT31;59687;37.520;15.068;2022-08-21T03:50:42;23.48;70.86
71839;SHT31;59687;37.520;15.068;2022-08-21T03:53:11;23.45;70.90
71839;SHT31;59687;37.520;15.068;2022-08-21T03:55:38;23.42;70.90
71839;SHT31;59687;37.520;15.068;2022-08-21T03:58:05;23.42;70.99
71839;SHT31;59687;37.520;15.068;2022-08-21T04:00:33;23.41;71.13
71839;SHT31;59687;37.520;15.068;2022-08-21T04:03:02;23.40;71.23
71839;SHT31;59687;37.520;15.068;2022-08-21T04:05:29;23.42;71.19
71839;SHT31;59687;37.520;15.068;2022-08-21T04:08:04;23.41;71.20
71839;SHT31;59687;37.520;15.068;2022-08-21T04:10:33;23.41;71.15
71839;SHT31;59687;37.520;15.068;2022-08-21T04:13:02;23.37;71.19
71839;SHT31;59687;37.520;15.068;2022-08-21T04:15:29;23.37;71.25
71839;SHT31;59687;37.520;15.068;2022-08-21T04:17:56;23.35;71.34
71839;SHT31;59687;37.520;15.068;2022-08-21T04:20:23;23.35;71.44
71839;SHT31;59687;37.520;15.068;2022-08-21T04:22:55;23.40;71.43
71839;SHT31;59687;37.520;15.068;2022-08-21T04:25:24;23.38;71.37
71839;SHT31;59687;37.520;15.068;2022-08-21T04:27:54;23.42;71.23
71839;SHT31;59687;37.520;15.068;2022-08-21T04:30:26;23.44;71.19
71839;SHT31;59687;37.520;15.068;2022-08-21T04:32:58;23.48;71.06
71839;SHT31;59687;37.520;15.068;2022-08-21T04:35:27;23.51;70.90
71839;SHT31;59687;37.520;15.068;2022-08-21T04:37:55;23.55;70.90
71839;SHT31;59687;37.520;15.068;2022-08-21T04:40:24;23.61;70.80
71839;SHT31;59687;37.520;15.068;2022-08-21T04:42:57;23.66;70.76
71839;SHT31;59687;37.520;15.068;2022-08-21T04:45:30;23.73;70.59
71839;SHT31;59687;37.520;15.068;2022-08-21T04:48:00;23.82;70.36
71839;SHT31;59687;37.520;15.068;2022-08-21T04:50:36;23.92;70.10
71839;SHT31;59687;37.520;15.068;2022-08-21T04:53:08;23.99;69.82
71839;SHT31;59687;37.520;15.068;2022-08-21T04:55:39;24.07;69.56
71839;SHT31;59687;37.520;15.068;2022-08-21T04:58:11;24.18;69.24
71839;SHT31;59687;37.520;15.068;2022-08-21T05:00:41;24.47;69.28
71839;SHT31;59687;37.520;15.068;2022-08-21T05:03:09;24.94;67.65
71839;SHT31;59687;37.520;15.068;2022-08-21T05:05:38;25.53;65.39
71839;SHT31;59687;37.520;15.068;2022-08-21T05:08:07;26.16;63.39
71839;SHT31;59687;37.520;15.068;2022-08-21T05:10:38;26.75;61.49
71839;SHT31;59687;37.520;15.068;2022-08-21T05:13:06;27.27;60.61
71839;SHT31;59687;37.520;15.068;2022-08-21T05:15:33;27.74;59.02
71839;SHT31;59687;37.520;15.068;2022-08-21T05:18:08;28.17;56.91
71839;SHT31;59687;37.520;15.068;2022-08-21T05:20:35;28.63;55.90
71839;SHT31;59687;37.520;15.068;2022-08-21T05:23:13;28.96;55.31
71839;SHT31;59687;37.520;15.068;2022-08-21T05:25:41;29.11;54.14
71839;SHT31;59687;37.520;15.068;2022-08-21T05:28:13;29.21;54.15
71839;SHT31;59687;37.520;15.068;2022-08-21T05:30:40;29.39;53.81
71839;SHT31;59687;37.520;15.068;2022-08-21T05:33:07;29.80;53.35
71839;SHT31;59687;37.520;15.068;2022-08-21T05:35:35;30.29;51.72
71839;SHT31;59687;37.520;15.068;2022-08-21T05:38:02;30.57;51.03
71839;SHT31;59687;37.520;15.068;2022-08-21T05:40:35;30.92;49.82
71839;SHT31;59687;37.520;15.068;2022-08-21T05:43:04;31.05;49.73
71839;SHT31;59687;37.520;15.068;2022-08-21T05:45:32;31.24;49.22
71839;SHT31;59687;37.520;15.068;2022-08-21T05:50:42;31.69;48.10
71839;SHT31;59687;37.520;15.068;2022-08-21T05:53:11;31.91;47.75
71839;SHT31;59687;37.520;15.068;2022-08-21T05:55:40;32.19;46.58
71839;SHT31;59687;37.520;15.068;2022-08-21T05:58:11;32.46;45.99
71839;SHT31;59687;37.520;15.068;2022-08-21T06:00:38;32.57;45.48
71839;SHT31;59687;37.520;15.068;2022-08-21T06:03:28;32.91;44.78
71839;SHT31;59687;37.520;15.068;2022-08-21T06:05:57;32.97;44.84
71839;SHT31;59687;37.520;15.068;2022-08-21T06:08:26;33.21;44.56
71839;SHT31;59687;37.520;15.068;2022-08-21T06:10:54;33.41;44.06
71839;SHT31;59687;37.520;15.068;2022-08-21T06:13:23;33.69;43.36
71839;SHT31;59687;37.520;15.068;2022-08-21T06:15:59;33.87;43.04
71839;SHT31;59687;37.520;15.068;2022-08-21T06:18:29;34.19;42.36
71839;SHT31;59687;37.520;15.068;2022-08-21T06:20:56;34.41;41.76
71839;SHT31;59687;37.520;15.068;2022-08-21T06:23:26;34.55;40.81
71839;SHT31;59687;37.520;15.068;2022-08-21T06:25:53;34.64;40.79
71839;SHT31;59687;37.520;15.068;2022-08-21T06:28:22;34.86;38.93
71839;SHT31;59687;37.520;15.068;2022-08-21T06:30:49;35.19;37.21
71839;SHT31;59687;37.520;15.068;2022-08-21T06:33:21;35.11;37.46
71839;SHT31;59687;37.520;15.068;2022-08-21T06:35:51;35.31;37.34
71839;SHT31;59687;37.520;15.068;2022-08-21T06:38:21;35.21;37.67
71839;SHT31;59687;37.520;15.068;2022-08-21T06:40:49;35.18;37.36
71839;SHT31;59687;37.520;15.068;2022-08-21T06:43:21;35.01;37.94
71839;SHT31;59687;37.520;15.068;2022-08-21T06:45:49;34.77;37.74
71839;SHT31;59687;37.520;15.068;2022-08-21T06:48:16;34.71;37.98
71839;SHT31;59687;37.520;15.068;2022-08-21T06:50:46;34.90;36.78
71839;SHT31;59687;37.520;15.068;2022-08-21T06:53:17;34.64;37.07
71839;SHT31;59687;37.520;15.068;2022-08-21T06:55:47;34.24;37.42
71839;SHT31;59687;37.520;15.068;2022-08-21T06:58:16;34.28;37.54
71839;SHT31;59687;37.520;15.068;2022-08-21T07:00:46;34.22;38.14
71839;SHT31;59687;37.520;15.068;2022-08-21T07:03:25;34.45;38.23
71839;SHT31;59687;37.520;15.068;2022-08-21T07:05:55;34.73;37.17
71839;SHT31;59687;37.520;15.068;2022-08-21T07:08:26;34.94;38.26
71839;SHT31;59687;37.520;15.068;2022-08-21T07:10:55;35.43;37.77
71839;SHT31;59687;37.520;15.068;2022-08-21T07:13:23;36.00;35.81
71839;SHT31;59687;37.520;15.068;2022-08-21T07:15:50;36.01;35.95
71839;SHT31;59687;37.520;15.068;2022-08-21T07:18:19;35.94;35.88
71839;SHT31;59687;37.520;15.068;2022-08-21T07:20:46;36.05;36.21
71839;SHT31;59687;37.520;15.068;2022-08-21T07:23:38;35.89;35.18
71839;SHT31;59687;37.520;15.068;2022-08-21T07:26:06;35.42;36.30
71839;SHT31;59687;37.520;15.068;2022-08-21T07:28:38;34.98;36.05
71839;SHT31;59687;37.520;15.068;2022-08-21T07:31:05;34.79;36.79
71839;SHT31;59687;37.520;15.068;2022-08-21T07:33:41;34.60;37.64
71839;SHT31;59687;37.520;15.068;2022-08-21T07:36:09;35.07;36.82
71839;SHT31;59687;37.520;15.068;2022-08-21T07:38:39;35.21;36.14
71839;SHT31;59687;37.520;15.068;2022-08-21T07:41:14;34.69;35.39
71839;SHT31;59687;37.520;15.068;2022-08-21T07:43:44;34.90;35.53
71839;SHT31;59687;37.520;15.068;2022-08-21T07:46:12;35.00;36.14
71839;SHT31;59687;37.520;15.068;2022-08-21T07:48:39;34.15;36.71
71839;SHT31;59687;37.520;15.068;2022-08-21T07:51:09;34.25;36.31
71839;SHT31;59687;37.520;15.068;2022-08-21T07:53:39;34.04;35.52
71839;SHT31;59687;37.520;15.068;2022-08-21T07:56:08;33.66;36.52
71839;SHT31;59687;37.520;15.068;2022-08-21T07:58:35;34.11;36.80
71839;SHT31;59687;37.520;15.068;2022-08-21T08:01:06;34.60;36.80
71839;SHT31;59687;37.520;15.068;2022-08-21T08:03:33;35.14;35.24
71839;SHT31;59687;37.520;15.068;2022-08-21T08:06:02;35.41;34.78
71839;SHT31;59687;37.520;15.068;2022-08-21T08:08:40;35.07;35.31
71839;SHT31;59687;37.520;15.068;2022-08-21T08:11:11;35.17;34.51
71839;SHT31;59687;37.520;15.068;2022-08-21T08:13:47;35.05;35.53
71839;SHT31;59687;37.520;15.068;2022-08-21T08:16:16;34.56;36.29
71839;SHT31;59687;37.520;15.068;2022-08-21T08:18:44;34.02;37.45
71839;SHT31;59687;37.520;15.068;2022-08-21T08:21:12;33.58;38.04
71839;SHT31;59687;37.520;15.068;2022-08-21T08:23:40;33.48;38.38
71839;SHT31;59687;37.520;15.068;2022-08-21T08:26:07;33.60;38.07
71839;SHT31;59687;37.520;15.068;2022-08-21T08:28:35;33.70;37.41
71839;SHT31;59687;37.520;15.068;2022-08-21T08:31:05;33.90;38.78
71839;SHT31;59687;37.520;15.068;2022-08-21T08:33:32;34.08;37.90
71839;SHT31;59687;37.520;15.068;2022-08-21T08:35:59;34.10;38.01
71839;SHT31;59687;37.520;15.068;2022-08-21T08:38:30;34.24;37.40
71839;SHT31;59687;37.520;15.068;2022-08-21T08:41:27;34.05;37.11
71839;SHT31;59687;37.520;15.068;2022-08-21T08:44:04;34.04;37.10
71839;SHT31;59687;37.520;15.068;2022-08-21T08:46:46;34.46;37.30
71839;SHT31;59687;37.520;15.068;2022-08-21T08:49:38;34.60;37.33
71839;SHT31;59687;37.520;15.068;2022-08-21T08:52:18;34.08;37.92
71839;SHT31;59687;37.520;15.068;2022-08-21T08:55:09;33.86;38.56
71839;SHT31;59687;37.520;15.068;2022-08-21T08:57:45;34.29;37.93
71839;SHT31;59687;37.520;15.068;2022-08-21T09:00:17;34.18;37.96
71839;SHT31;59687;37.520;15.068;2022-08-21T09:02:45;34.73;36.53
71839;SHT31;59687;37.520;15.068;2022-08-21T09:16:26;35.58;33.72
71839;SHT31;59687;37.520;15.068;2022-08-21T09:25:15;35.27;34.78
71839;SHT31;59687;37.520;15.068;2022-08-21T09:27:45;34.18;36.16
71839;SHT31;59687;37.520;15.068;2022-08-21T09:30:14;34.04;36.16
71839;SHT31;59687;37.520;15.068;2022-08-21T09:32:42;33.41;37.44
71839;SHT31;59687;37.520;15.068;2022-08-21T09:35:17;33.93;36.74
71839;SHT31;59687;37.520;15.068;2022-08-21T09:40:43;34.25;37.07
71839;SHT31;59687;37.520;15.068;2022-08-21T09:45:41;33.60;38.01
71839;SHT31;59687;37.520;15.068;2022-08-21T09:48:20;33.56;37.89
71839;SHT31;59687;37.520;15.068;2022-08-21T09:50:49;34.08;37.07
71839;SHT31;59687;37.520;15.068;2022-08-21T09:53:25;34.31;36.98
71839;SHT31;59687;37.520;15.068;2022-08-21T09:56:04;34.82;36.51
71839;SHT31;59687;37.520;15.068;2022-08-21T09:58:52;35.79;35.55
71839;SHT31;59687;37.520;15.068;2022-08-21T10:01:24;36.07;35.18
71839;SHT31;59687;37.520;15.068;2022-08-21T10:04:06;36.49;35.11
71839;SHT31;59687;37.520;15.068;2022-08-21T10:06:33;37.54;33.04
71839;SHT31;59687;37.520;15.068;2022-08-21T10:09:11;38.69;31.61
71839;SHT31;59687;37.520;15.068;2022-08-21T10:12:00;38.69;30.33
71839;SHT31;59687;37.520;15.068;2022-08-21T10:23:15;41.58;26.08
71839;SHT31;59687;37.520;15.068;2022-08-21T10:26:02;41.35;26.02
71839;SHT31;59687;37.520;15.068;2022-08-21T10:34:28;41.66;25.79
71839;SHT31;59687;37.520;15.068;2022-08-21T10:51:15;41.89;25.14
71839;SHT31;59687;37.520;15.068;2022-08-21T10:56:47;41.64;27.34
71839;SHT31;59687;37.520;15.068;2022-08-21T10:59:26;41.33;28.04
71839;SHT31;59687;37.520;15.068;2022-08-21T11:02:17;41.35;27.88
71839;SHT31;59687;37.520;15.068;2022-08-21T11:05:21;41.35;29.00
71839;SHT31;59687;37.520;15.068;2022-08-21T11:08:16;40.40;31.16
71839;SHT31;59687;37.520;15.068;2022-08-21T11:13:57;39.00;33.35
71839;SHT31;59687;37.520;15.068;2022-08-21T11:16:40;38.99;31.18
71839;SHT31;59687;37.520;15.068;2022-08-21T11:19:22;41.15;26.91
71839;SHT31;59687;37.520;15.068;2022-08-21T11:22:04;40.54;27.38
71839;SHT31;59687;37.520;15.068;2022-08-21T11:24:39;41.64;27.24
71839;SHT31;59687;37.520;15.068;2022-08-21T11:27:28;42.12;27.71
71839;SHT31;59687;37.520;15.068;2022-08-21T11:30:00;40.47;28.92
71839;SHT31;59687;37.520;15.068;2022-08-21T11:38:46;40.04;30.99
71839;SHT31;59687;37.520;15.068;2022-08-21T11:41:36;39.41;31.82
71839;SHT31;59687;37.520;15.068;2022-08-21T11:44:33;40.34;32.40
71839;SHT31;59687;37.520;15.068;2022-08-21T11:47:22;40.42;29.91
71839;SHT31;59687;37.520;15.068;2022-08-21T11:50:15;40.44;31.75
71839;SHT31;59687;37.520;15.068;2022-08-21T11:52:52;40.83;30.30
71839;SHT31;59687;37.520;15.068;2022-08-21T11:55:44;40.66;30.05
71839;SHT31;59687;37.520;15.068;2022-08-21T11:58:20;40.04;28.03
71839;SHT31;59687;37.520;15.068;2022-08-21T12:01:00;39.93;28.73
71839;SHT31;59687;37.520;15.068;2022-08-21T12:03:42;39.30;29.51
71839;SHT31;59687;37.520;15.068;2022-08-21T12:06:32;38.80;28.73
71839;SHT31;59687;37.520;15.068;2022-08-21T12:09:34;38.51;34.00
71839;SHT31;59687;37.520;15.068;2022-08-21T12:12:29;38.11;33.22
71839;SHT31;59687;37.520;15.068;2022-08-21T12:18:00;36.96;35.27
71839;SHT31;59687;37.520;15.068;2022-08-21T12:20:43;36.94;35.55
71839;SHT31;59687;37.520;15.068;2022-08-21T12:23:32;35.73;39.24
71839;SHT31;59687;37.520;15.068;2022-08-21T12:28:40;33.69;45.65
71839;SHT31;59687;37.520;15.068;2022-08-21T12:31:25;32.52;46.31
71839;SHT31;59687;37.520;15.068;2022-08-21T12:34:02;32.01;47.01
71839;SHT31;59687;37.520;15.068;2022-08-21T12:37:05;31.62;49.99
71839;SHT31;59687;37.520;15.068;2022-08-21T12:39:36;31.67;49.94
71839;SHT31;59687;37.520;15.068;2022-08-21T12:42:15;31.72;49.73
71839;SHT31;59687;37.520;15.068;2022-08-21T12:44:47;31.69;50.34
71839;SHT31;59687;37.520;15.068;2022-08-21T12:50:11;30.83;53.15
71839;SHT31;59687;37.520;15.068;2022-08-21T12:52:58;31.02;54.68
71839;SHT31;59687;37.520;15.068;2022-08-21T12:55:31;31.21;53.70
71839;SHT31;59687;37.520;15.068;2022-08-21T12:58:00;31.26;52.46
71839;SHT31;59687;37.520;15.068;2022-08-21T13:00:29;31.11;51.97
71839;SHT31;59687;37.520;15.068;2022-08-21T13:02:56;30.97;53.35
71839;SHT31;59687;37.520;15.068;2022-08-21T13:05:28;30.80;52.57
71839;SHT31;59687;37.520;15.068;2022-08-21T13:07:56;30.64;55.10
71839;SHT31;59687;37.520;15.068;2022-08-21T13:10:27;30.64;56.83
71839;SHT31;59687;37.520;15.068;2022-08-21T13:13:08;30.60;53.30
71839;SHT31;59687;37.520;15.068;2022-08-21T13:15:39;30.25;52.69
71839;SHT31;59687;37.520;15.068;2022-08-21T13:18:07;30.43;53.78
71839;SHT31;59687;37.520;15.068;2022-08-21T13:20:36;30.72;52.95
71839;SHT31;59687;37.520;15.068;2022-08-21T13:23:20;31.26;49.62
71839;SHT31;59687;37.520;15.068;2022-08-21T13:25:48;31.49;51.61
71839;SHT31;59687;37.520;15.068;2022-08-21T13:28:16;31.45;47.99
71839;SHT31;59687;37.520;15.068;2022-08-21T13:30:54;31.54;49.01
71839;SHT31;59687;37.520;15.068;2022-08-21T13:33:24;31.45;48.85
71839;SHT31;59687;37.520;15.068;2022-08-21T13:36:04;31.73;47.60
71839;SHT31;59687;37.520;15.068;2022-08-21T13:38:35;31.81;49.15
71839;SHT31;59687;37.520;15.068;2022-08-21T13:43:50;31.63;45.77
71839;SHT31;59687;37.520;15.068;2022-08-21T13:46:21;31.58;48.48
71839;SHT31;59687;37.520;15.068;2022-08-21T13:48:49;31.53;47.15
71839;SHT31;59687;37.520;15.068;2022-08-21T13:51:17;31.60;47.40
71839;SHT31;59687;37.520;15.068;2022-08-21T13:53:49;31.67;45.92
71839;SHT31;59687;37.520;15.068;2022-08-21T13:56:25;31.67;44.02
71839;SHT31;59687;37.520;15.068;2022-08-21T13:58:57;31.62;42.63
71839;SHT31;59687;37.520;15.068;2022-08-21T14:01:34;31.73;43.87
71839;SHT31;59687;37.520;15.068;2022-08-21T14:04:39;31.66;46.77
71839;SHT31;59687;37.520;15.068;2022-08-21T14:07:24;31.73;46.20
71839;SHT31;59687;37.520;15.068;2022-08-21T14:09:54;31.74;46.14
71839;SHT31;59687;37.520;15.068;2022-08-21T14:15:26;31.77;44.82
71839;SHT31;59687;37.520;15.068;2022-08-21T14:18:16;31.54;42.77
71839;SHT31;59687;37.520;15.068;2022-08-21T14:20:45;31.36;43.42
71839;SHT31;59687;37.520;15.068;2022-08-21T14:23:23;31.14;44.09
71839;SHT31;59687;37.520;15.068;2022-08-21T14:25:52;31.18;44.92
71839;SHT31;59687;37.520;15.068;2022-08-21T14:28:25;31.25;44.28
71839;SHT31;59687;37.520;15.068;2022-08-21T14:30:55;31.38;44.02
71839;SHT31;59687;37.520;15.068;2022-08-21T14:33:28;31.21;44.09
71839;SHT31;59687;37.520;15.068;2022-08-21T14:35:56;31.24;44.11
71839;SHT31;59687;37.520;15.068;2022-08-21T14:38:26;31.22;46.72
71839;SHT31;59687;37.520;15.068;2022-08-21T14:41:00;31.31;48.01
71839;SHT31;59687;37.520;15.068;2022-08-21T14:43:30;31.22;48.78
71839;SHT31;59687;37.520;15.068;2022-08-21T14:45:57;31.22;48.24
71839;SHT31;59687;37.520;15.068;2022-08-21T14:48:24;31.21;48.52
71839;SHT31;59687;37.520;15.068;2022-08-21T14:50:53;31.10;50.70
71839;SHT31;59687;37.520;15.068;2022-08-21T14:53:23;30.83;52.35
71839;SHT31;59687;37.520;15.068;2022-08-21T14:55:51;30.46;51.19
71839;SHT31;59687;37.520;15.068;2022-08-21T14:58:39;30.28;52.49
71839;SHT31;59687;37.520;15.068;2022-08-21T15:01:11;30.22;51.56
71839;SHT31;59687;37.520;15.068;2022-08-21T15:03:39;30.15;51.97
71839;SHT31;59687;37.520;15.068;2022-08-21T15:06:06;30.02;53.28
71839;SHT31;59687;37.520;15.068;2022-08-21T15:08:34;29.86;54.72
71839;SHT31;59687;37.520;15.068;2022-08-21T15:11:02;29.86;53.78
71839;SHT31;59687;37.520;15.068;2022-08-21T15:13:39;29.77;53.17
71839;SHT31;59687;37.520;15.068;2022-08-21T15:16:08;29.97;52.31
71839;SHT31;59687;37.520;15.068;2022-08-21T15:18:37;30.10;54.56
71839;SHT31;59687;37.520;15.068;2022-08-21T15:21:04;29.98;55.96
71839;SHT31;59687;37.520;15.068;2022-08-21T15:23:31;30.02;55.93
71839;SHT31;59687;37.520;15.068;2022-08-21T15:25:57;29.94;54.98
71839;SHT31;59687;37.520;15.068;2022-08-21T15:28:24;29.91;55.19
71839;SHT31;59687;37.520;15.068;2022-08-21T15:30:53;29.87;57.05
71839;SHT31;59687;37.520;15.068;2022-08-21T15:33:20;29.84;56.93
71839;SHT31;59687;37.520;15.068;2022-08-21T15:35:47;29.78;56.86
71839;SHT31;59687;37.520;15.068;2022-08-21T15:38:16;29.74;54.00
71839;SHT31;59687;37.520;15.068;2022-08-21T15:40:43;29.83;56.66
71839;SHT31;59687;37.520;15.068;2022-08-21T15:43:32;29.90;55.78
71839;SHT31;59687;37.520;15.068;2022-08-21T15:46:00;29.93;56.30
71839;SHT31;59687;37.520;15.068;2022-08-21T15:48:28;30.08;56.52
71839;SHT31;59687;37.520;15.068;2022-08-21T15:50:55;30.25;56.67
71839;SHT31;59687;37.520;15.068;2022-08-21T15:53:22;30.28;57.80
71839;SHT31;59687;37.520;15.068;2022-08-21T15:55:50;30.25;57.65
71839;SHT31;59687;37.520;15.068;2022-08-21T15:58:17;30.22;58.45
71839;SHT31;59687;37.520;15.068;2022-08-21T16:00:46;29.80;60.36
71839;SHT31;59687;37.520;15.068;2022-08-21T16:03:15;29.78;58.98
71839;SHT31;59687;37.520;15.068;2022-08-21T16:05:45;29.65;57.63
71839;SHT31;59687;37.520;15.068;2022-08-21T16:08:15;29.67;58.37
71839;SHT31;59687;37.520;15.068;2022-08-21T16:10:42;29.49;58.52
71839;SHT31;59687;37.520;15.068;2022-08-21T16:13:31;29.33;59.86
71839;SHT31;59687;37.520;15.068;2022-08-21T16:16:05;29.36;60.70
71839;SHT31;59687;37.520;15.068;2022-08-21T16:18:32;29.46;59.71
71839;SHT31;59687;37.520;15.068;2022-08-21T16:20:59;29.45;60.40
71839;SHT31;59687;37.520;15.068;2022-08-21T16:23:25;29.36;60.14
71839;SHT31;59687;37.520;15.068;2022-08-21T16:25:52;29.14;58.57
71839;SHT31;59687;37.520;15.068;2022-08-21T16:28:20;29.12;59.74
71839;SHT31;59687;37.520;15.068;2022-08-21T16:30:49;29.15;60.31
71839;SHT31;59687;37.520;15.068;2022-08-21T16:33:32;29.08;58.66
71839;SHT31;59687;37.520;15.068;2022-08-21T16:36:01;29.04;57.97
71839;SHT31;59687;37.520;15.068;2022-08-21T16:38:29;28.97;57.30
71839;SHT31;59687;37.520;15.068;2022-08-21T16:40:55;28.91;58.56
71839;SHT31;59687;37.520;15.068;2022-08-21T16:43:26;28.91;60.26
71839;SHT31;59687;37.520;15.068;2022-08-21T16:45:55;28.91;60.82
71839;SHT31;59687;37.520;15.068;2022-08-21T16:48:24;28.91;60.33
71839;SHT31;59687;37.520;15.068;2022-08-21T16:50:51;28.94;59.02
71839;SHT31;59687;37.520;15.068;2022-08-21T16:53:18;28.97;58.02
71839;SHT31;59687;37.520;15.068;2022-08-21T16:55:46;28.89;57.88
71839;SHT31;59687;37.520;15.068;2022-08-21T16:58:21;28.91;57.38
71839;SHT31;59687;37.520;15.068;2022-08-21T17:00:49;28.91;57.81
71839;SHT31;59687;37.520;15.068;2022-08-21T17:03:18;28.81;57.42
71839;SHT31;59687;37.520;15.068;2022-08-21T17:06:07;28.76;57.56
71839;SHT31;59687;37.520;15.068;2022-08-21T17:08:35;28.79;57.70